sensor_id;sensor_type;location;lat;lon;timestamp;temperature;humidity
24638;DHT22;12773;50.162;8.548;2022-09-09T00:07:43;18.40;99.90
24638;DHT22;12773;50.162;8.548;2022-09-09T00:10:36;18.50;99.90
24638;DHT22;12773;50.162;8.548;2022-09-09T00:13:38;18.50;99.90
24638;DHT22;12773;50.162;8.548;2022-09-09T00:16:28;18.50;99.90
24638;DHT22;12773;50.162;8.548;2022-09-09T00:22:19;18.40;99.90
24638;DHT22;12773;50.162;8.548;2022-09-09T00:25:12;18.40;99.90
24638;DHT22;12773;50.162;8.548;2022-09-09T00:28:01;18.30;99.90
24638;DHT22;12773;50.162;8.548;2022-09-09T00:30:49;18.30;99.90
24638;DHT22;12773;50.162;8.548;2022-09-09T00:33:36;18.30;99.90
24638;DHT22;12773;50.162;8.548;2022-09-09T00:36:26;18.10;99.90
24638;DHT22;12773;50.162;8.548;2022-09-09T00:39:40;17.90;99.90
24638;DHT22;12773;50.162;8.548;2022-09-09T00:42:25;17.80;99.90
24638;DHT22;12773;50.162;8.548;2022-09-09T00:48:13;17.80;99.90
24638;DHT22;12773;50.162;8.548;2022-09-09T00:51:07;17.70;99.90
24638;DHT22;12773;50.162;8.548;2022-09-09T00:57:16;17.70;99.90
24638;DHT22;12773;50.162;8.548;2022-09-09T01:00:16;17.70;99.90
24638;DHT22;12773;50.162;8.548;2022-09-09T01:03:18;17.70;99.90
24638;DHT22;12773;50.162;8.548;2022-09-09T01:06:12;17.50;99.90
24638;DHT22;12773;50.162;8.548;2022-09-09T01:15:27;17.10;99.90
24638;DHT22;12773;50.162;8.548;2022-09-09T01:18:17;17.10;99.90
24638;DHT22;12773;50.162;8.548;2022-09-09T01:21:30;17.10;99.90
24638;DHT22;12773;50.162;8.548;2022-09-09T01:27:08;17.00;99.90
24638;DHT22;12773;50.162;8.548;2022-09-09T01:29:56;16.90;99.90
24638;DHT22;12773;50.162;8.548;2022-09-09T01:32:49;16.90;99.90
24638;DHT22;12773;50.162;8.548;2022-09-09T01:35:57;16.80;99.90
24638;DHT22;12773;50.162;8.548;2022-09-09T01:38:45;16.80;99.90
24638;DHT22;12773;50.162;8.548;2022-09-09T01:41:33;16.70;99.90
24638;DHT22;12773;50.162;8.548;2022-09-09T01:44:21;16.60;99.90
24638;DHT22;12773;50.162;8.548;2022-09-09T01:47:09;16.50;99.90
24638;DHT22;12773;50.162;8.548;2022-09-09T01:49:56;16.40;99.90
24638;DHT22;12773;50.162;8.548;2022-09-09T01:52:45;16.40;99.90
24638;DHT22;12773;50.162;8.548;2022-09-09T01:55:38;16.40;99.90
24638;DHT22;12773;50.162;8.548;2022-09-09T02:04:48;16.20;99.90
24638;DHT22;12773;50.162;8.548;2022-09-09T02:07:50;16.30;99.90
24638;DHT22;12773;50.162;8.548;2022-09-09T02:10:46;16.40;99.90
24638;DHT22;12773;50.162;8.548;2022-09-09T02:13:31;16.30;99.90
24638;DHT22;12773;50.162;8.548;2022-09-09T02:16:34;16.20;99.90
24638;DHT22;12773;50.162;8.548;2022-09-09T02:19:32;16.20;99.90
24638;DHT22;12773;50.162;8.548;2022-09-09T02:22:20;16.10;99.90
24638;DHT22;12773;50.162;8.548;2022-09-09T02:25:12;16.10;99.90
24638;DHT22;12773;50.162;8.548;2022-09-09T02:27:59;16.20;99.90
24638;DHT22;12773;50.162;8.548;2022-09-09T02:30:49;16.30;99.90
24638;DHT22;12773;50.162;8.548;2022-09-09T02:33:42;16.40;99.90
24638;DHT22;12773;50.162;8.548;2022-09-09T02:36:31;16.60;99.90
24638;DHT22;12773;50.162;8.548;2022-09-09T02:39:19;16.70;99.90
24638;DHT22;12773;50.162;8.548;2022-09-09T02:42:06;16.70;99.90
24638;DHT22;12773;50.162;8.548;2022-09-09T02:44:54;16.70;99.90
24638;DHT22;12773;50.162;8.548;2022-09-09T02:51:08;16.80;99.90
24638;DHT22;12773;50.162;8.548;2022-09-09T02:56:54;16.90;99.90
24638;DHT22;12773;50.162;8.548;2022-09-09T02:59:44;17.00;99.90
24638;DHT22;12773;50.162;8.548;2022-09-09T03:02:31;17.10;99.90
24638;DHT22;12773;50.162;8.548;2022-09-09T03:05:19;17.20;99.90
24638;DHT22;12773;50.162;8.548;2022-09-09T03:08:06;17.20;99.90
24638;DHT22;12773;50.162;8.548;2022-09-09T03:10:55;17.20;99.90
24638;DHT22;12773;50.162;8.548;2022-09-09T03:13:42;17.20;99.90
24638;DHT22;12773;50.162;8.548;2022-09-09T03:16:29;17.30;99.90
24638;DHT22;12773;50.162;8.548;2022-09-09T03:19:17;17.30;99.90
24638;DHT22;12773;50.162;8.548;2022-09-09T03:22:04;17.30;99.90
24638;DHT22;12773;50.162;8.548;2022-09-09T03:24:52;17.30;99.90
24638;DHT22;12773;50.162;8.548;2022-09-09T03:27:39;17.30;99.90
24638;DHT22;12773;50.162;8.548;2022-09-09T03:30:28;17.20;99.90
24638;DHT22;12773;50.162;8.548;2022-09-09T03:33:15;17.10;99.90
24638;DHT22;12773;50.162;8.548;2022-09-09T03:36:02;17.20;99.90
24638;DHT22;12773;50.162;8.548;2022-09-09T03:38:49;17.10;99.90
24638;DHT22;12773;50.162;8.548;2022-09-09T03:41:37;17.10;99.90
24638;DHT22;12773;50.162;8.548;2022-09-09T03:44:24;17.20;99.90
24638;DHT22;12773;50.162;8.548;2022-09-09T03:47:12;17.20;99.90
24638;DHT22;12773;50.162;8.548;2022-09-09T03:50:00;17.30;99.90
24638;DHT22;12773;50.162;8.548;2022-09-09T03:52:47;17.30;99.90
24638;DHT22;12773;50.162;8.548;2022-09-09T03:55:34;17.40;99.90
24638;DHT22;12773;50.162;8.548;2022-09-09T03:58:23;17.50;99.90
24638;DHT22;12773;50.162;8.548;2022-09-09T04:01:12;17.60;99.90
24638;DHT22;12773;50.162;8.548;2022-09-09T04:04:00;17.60;99.90
24638;DHT22;12773;50.162;8.548;2022-09-09T04:06:48;17.40;99.90
24638;DHT22;12773;50.162;8.548;2022-09-09T04:09:36;17.40;99.90
24638;DHT22;12773;50.162;8.548;2022-09-09T04:12:24;17.30;99.90
24638;DHT22;12773;50.162;8.548;2022-09-09T04:15:11;17.30;99.90
24638;DHT22;12773;50.162;8.548;2022-09-09T04:17:59;17.30;99.90
24638;DHT22;12773;50.162;8.548;2022-09-09T04:20:50;17.30;99.90
24638;DHT22;12773;50.162;8.548;2022-09-09T04:23:38;17.30;99.90
24638;DHT22;12773;50.162;8.548;2022-09-09T04:26:25;17.40;99.90
24638;DHT22;12773;50.162;8.548;2022-09-09T04:29:13;17.50;99.90
24638;DHT22;12773;50.162;8.548;2022-09-09T04:32:00;17.60;99.90
24638;DHT22;12773;50.162;8.548;2022-09-09T04:34:48;17.60;99.90
24638;DHT22;12773;50.162;8.548;2022-09-09T04:37:35;17.60;99.90
24638;DHT22;12773;50.162;8.548;2022-09-09T04:40:22;17.70;99.90
24638;DHT22;12773;50.162;8.548;2022-09-09T04:43:11;17.70;99.90
24638;DHT22;12773;50.162;8.548;2022-09-09T04:46:00;17.70;99.90
24638;DHT22;12773;50.162;8.548;2022-09-09T04:48:48;17.70;99.90
24638;DHT22;12773;50.162;8.548;2022-09-09T04:51:36;17.50;99.90
24638;DHT22;12773;50.162;8.548;2022-09-09T04:54:23;17.50;99.90
24638;DHT22;12773;50.162;8.548;2022-09-09T04:57:11;17.50;99.90
24638;DHT22;12773;50.162;8.548;2022-09-09T05:00:00;17.50;99.90
24638;DHT22;12773;50.162;8.548;2022-09-09T05:02:48;17.50;99.90
24638;DHT22;12773;50.162;8.548;2022-09-09T05:05:36;17.50;99.90
24638;DHT22;12773;50.162;8.548;2022-09-09T05:08:23;17.50;99.90
24638;DHT22;12773;50.162;8.548;2022-09-09T05:11:15;17.50;99.90
24638;DHT22;12773;50.162;8.548;2022-09-09T05:14:03;17.50;99.90
24638;DHT22;12773;50.162;8.548;2022-09-09T05:16:51;17.50;99.90
24638;DHT22;12773;50.162;8.548;2022-09-09T05:19:38;17.60;99.90
24638;DHT22;12773;50.162;8.548;2022-09-09T05:22:26;17.70;99.90
24638;DHT22;12773;50.162;8.548;2022-09-09T05:25:14;17.70;99.90
24638;DHT22;12773;50.162;8.548;2022-09-09T05:28:02;17.80;99.90
24638;DHT22;12773;50.162;8.548;2022-09-09T05:31:01;17.80;99.90
24638;DHT22;12773;50.162;8.548;2022-09-09T05:33:50;17.80;99.90
24638;DHT22;12773;50.162;8.548;2022-09-09T05:36:37;17.80;99.90
24638;DHT22;12773;50.162;8.548;2022-09-09T05:39:25;18.00;99.90
24638;DHT22;12773;50.162;8.548;2022-09-09T05:42:13;18.00;99.90
24638;DHT22;12773;50.162;8.548;2022-09-09T05:45:01;18.10;99.90
24638;DHT22;12773;50.162;8.548;2022-09-09T05:47:51;18.10;99.90
24638;DHT22;12773;50.162;8.548;2022-09-09T05:50:40;18.00;99.90
24638;DHT22;12773;50.162;8.548;2022-09-09T05:53:29;18.00;99.90
24638;DHT22;12773;50.162;8.548;2022-09-09T05:56:25;18.10;99.90
24638;DHT22;12773;50.162;8.548;2022-09-09T05:59:13;18.20;99.90
24638;DHT22;12773;50.162;8.548;2022-09-09T06:02:01;18.30;99.90
24638;DHT22;12773;50.162;8.548;2022-09-09T06:04:48;18.40;99.90
24638;DHT22;12773;50.162;8.548;2022-09-09T06:07:36;18.50;99.90
24638;DHT22;12773;50.162;8.548;2022-09-09T06:10:24;18.50;99.90
24638;DHT22;12773;50.162;8.548;2022-09-09T06:13:11;18.50;99.90
24638;DHT22;12773;50.162;8.548;2022-09-09T06:15:59;18.40;99.90
24638;DHT22;12773;50.162;8.548;2022-09-09T06:18:47;18.40;99.90
24638;DHT22;12773;50.162;8.548;2022-09-09T06:21:36;18.40;99.90
24638;DHT22;12773;50.162;8.548;2022-09-09T06:24:23;18.50;99.90
24638;DHT22;12773;50.162;8.548;2022-09-09T06:27:10;18.30;99.90
24638;DHT22;12773;50.162;8.548;2022-09-09T06:29:59;18.10;99.90
24638;DHT22;12773;50.162;8.548;2022-09-09T06:32:46;18.10;99.90
24638;DHT22;12773;50.162;8.548;2022-09-09T06:35:33;18.10;99.90
24638;DHT22;12773;50.162;8.548;2022-09-09T06:38:21;18.20;99.90
24638;DHT22;12773;50.162;8.548;2022-09-09T06:41:10;18.40;99.90
24638;DHT22;12773;50.162;8.548;2022-09-09T06:43:58;18.30;99.90
24638;DHT22;12773;50.162;8.548;2022-09-09T06:46:45;18.20;99.90
24638;DHT22;12773;50.162;8.548;2022-09-09T06:49:35;18.10;99.90
24638;DHT22;12773;50.162;8.548;2022-09-09T06:52:22;18.10;99.90
24638;DHT22;12773;50.162;8.548;2022-09-09T06:55:11;18.10;99.90
24638;DHT22;12773;50.162;8.548;2022-09-09T06:57:59;18.00;99.90
24638;DHT22;12773;50.162;8.548;2022-09-09T07:00:47;18.00;99.90
24638;DHT22;12773;50.162;8.548;2022-09-09T07:03:34;18.10;99.90
24638;DHT22;12773;50.162;8.548;2022-09-09T07:06:27;18.10;99.90
24638;DHT22;12773;50.162;8.548;2022-09-09T07:09:16;18.20;99.90
24638;DHT22;12773;50.162;8.548;2022-09-09T07:12:03;18.10;99.90
24638;DHT22;12773;50.162;8.548;2022-09-09T07:14:52;18.20;99.90
24638;DHT22;12773;50.162;8.548;2022-09-09T07:17:40;18.20;99.90
24638;DHT22;12773;50.162;8.548;2022-09-09T07:20:27;18.30;99.90
24638;DHT22;12773;50.162;8.548;2022-09-09T07:23:14;18.20;99.90
24638;DHT22;12773;50.162;8.548;2022-09-09T07:26:02;18.20;99.90
24638;DHT22;12773;50.162;8.548;2022-09-09T07:28:49;18.40;99.90
24638;DHT22;12773;50.162;8.548;2022-09-09T07:31:38;18.30;99.90
24638;DHT22;12773;50.162;8.548;2022-09-09T07:34:26;18.50;99.90
24638;DHT22;12773;50.162;8.548;2022-09-09T07:37:13;18.60;99.90
24638;DHT22;12773;50.162;8.548;2022-09-09T07:40:00;18.60;99.90
24638;DHT22;12773;50.162;8.548;2022-09-09T07:42:50;18.70;99.90
24638;DHT22;12773;50.162;8.548;2022-09-09T07:45:37;18.70;99.90
24638;DHT22;12773;50.162;8.548;2022-09-09T07:48:24;18.70;99.90
24638;DHT22;12773;50.162;8.548;2022-09-09T07:51:14;18.90;99.90
24638;DHT22;12773;50.162;8.548;2022-09-09T07:54:06;19.10;99.90
24638;DHT22;12773;50.162;8.548;2022-09-09T07:56:55;19.20;99.90
24638;DHT22;12773;50.162;8.548;2022-09-09T07:59:42;19.20;99.90
24638;DHT22;12773;50.162;8.548;2022-09-09T08:02:30;19.00;99.90
24638;DHT22;12773;50.162;8.548;2022-09-09T08:05:17;18.90;99.90
24638;DHT22;12773;50.162;8.548;2022-09-09T08:08:05;18.90;99.90
24638;DHT22;12773;50.162;8.548;2022-09-09T08:10:52;18.90;99.90
24638;DHT22;12773;50.162;8.548;2022-09-09T08:13:39;19.00;99.90
24638;DHT22;12773;50.162;8.548;2022-09-09T08:16:30;19.00;99.90
24638;DHT22;12773;50.162;8.548;2022-09-09T08:19:17;19.20;99.90
24638;DHT22;12773;50.162;8.548;2022-09-09T08:22:04;19.50;99.90
24638;DHT22;12773;50.162;8.548;2022-09-09T08:24:51;19.70;99.90
24638;DHT22;12773;50.162;8.548;2022-09-09T08:27:39;19.70;99.90
24638;DHT22;12773;50.162;8.548;2022-09-09T08:30:27;19.90;99.90
24638;DHT22;12773;50.162;8.548;2022-09-09T08:33:14;20.00;99.90
24638;DHT22;12773;50.162;8.548;2022-09-09T08:36:02;19.90;99.90
24638;DHT22;12773;50.162;8.548;2022-09-09T08:38:54;20.00;99.90
24638;DHT22;12773;50.162;8.548;2022-09-09T08:41:57;20.00;99.90
24638;DHT22;12773;50.162;8.548;2022-09-09T08:45:01;20.00;99.90
24638;DHT22;12773;50.162;8.548;2022-09-09T08:50:48;19.90;99.90
24638;DHT22;12773;50.162;8.548;2022-09-09T08:53:42;20.00;99.90
24638;DHT22;12773;50.162;8.548;2022-09-09T08:56:31;19.90;99.90
24638;DHT22;12773;50.162;8.548;2022-09-09T08:59:20;19.80;99.90
24638;DHT22;12773;50.162;8.548;2022-09-09T09:02:20;19.70;99.90
24638;DHT22;12773;50.162;8.548;2022-09-09T09:08:17;19.50;99.90
24638;DHT22;12773;50.162;8.548;2022-09-09T09:11:01;19.40;99.90
24638;DHT22;12773;50.162;8.548;2022-09-09T09:14:02;19.30;99.90
24638;DHT22;12773;50.162;8.548;2022-09-09T09:16:56;19.20;99.90
24638;DHT22;12773;50.162;8.548;2022-09-09T09:19:44;19.20;99.90
24638;DHT22;12773;50.162;8.548;2022-09-09T09:22:43;19.10;99.90
24638;DHT22;12773;50.162;8.548;2022-09-09T09:25:35;19.30;99.90
24638;DHT22;12773;50.162;8.548;2022-09-09T09:28:25;19.40;99.90
24638;DHT22;12773;50.162;8.548;2022-09-09T09:31:13;19.40;99.90
24638;DHT22;12773;50.162;8.548;2022-09-09T09:34:01;19.60;99.90
24638;DHT22;12773;50.162;8.548;2022-09-09T09:36:59;19.80;99.90
24638;DHT22;12773;50.162;8.548;2022-09-09T09:39:50;20.00;99.90
24638;DHT22;12773;50.162;8.548;2022-09-09T09:42:51;20.10;99.90
24638;DHT22;12773;50.162;8.548;2022-09-09T09:45:42;20.10;99.90
24638;DHT22;12773;50.162;8.548;2022-09-09T09:48:35;20.10;99.90
24638;DHT22;12773;50.162;8.548;2022-09-09T09:51:23;20.20;99.90
24638;DHT22;12773;50.162;8.548;2022-09-09T09:54:23;20.30;99.90
24638;DHT22;12773;50.162;8.548;2022-09-09T09:57:16;20.40;99.90
24638;DHT22;12773;50.162;8.548;2022-09-09T10:00:16;20.60;99.90
24638;DHT22;12773;50.162;8.548;2022-09-09T10:03:14;20.60;99.90
24638;DHT22;12773;50.162;8.548;2022-09-09T10:06:00;20.70;99.90
24638;DHT22;12773;50.162;8.548;2022-09-09T10:08:48;20.50;99.90
24638;DHT22;12773;50.162;8.548;2022-09-09T10:11:44;20.10;99.90
24638;DHT22;12773;50.162;8.548;2022-09-09T10:18:13;19.30;99.90
24638;DHT22;12773;50.162;8.548;2022-09-09T10:21:13;19.40;99.90
24638;DHT22;12773;50.162;8.548;2022-09-09T10:24:04;19.50;99.90
24638;DHT22;12773;50.162;8.548;2022-09-09T10:27:20;19.60;99.90
24638;DHT22;12773;50.162;8.548;2022-09-09T10:33:12;19.30;99.90
24638;DHT22;12773;50.162;8.548;2022-09-09T10:36:17;19.10;99.90
24638;DHT22;12773;50.162;8.548;2022-09-09T10:39:04;19.30;99.90
24638;DHT22;12773;50.162;8.548;2022-09-09T10:42:05;19.90;99.90
24638;DHT22;12773;50.162;8.548;2022-09-09T10:45:02;20.20;99.90
24638;DHT22;12773;50.162;8.548;2022-09-09T10:47:52;20.40;99.90
24638;DHT22;12773;50.162;8.548;2022-09-09T10:53:48;20.60;99.90
24638;DHT22;12773;50.162;8.548;2022-09-09T10:56:35;20.60;99.90
24638;DHT22;12773;50.162;8.548;2022-09-09T10:59:28;20.50;99.90
24638;DHT22;12773;50.162;8.548;2022-09-09T11:05:28;21.00;99.90
24638;DHT22;12773;50.162;8.548;2022-09-09T11:08:14;21.20;99.90
24638;DHT22;12773;50.162;8.548;2022-09-09T11:14:12;21.80;99.90
24638;DHT22;12773;50.162;8.548;2022-09-09T11:17:12;21.90;99.90
24638;DHT22;12773;50.162;8.548;2022-09-09T11:19:59;22.50;99.90
24638;DHT22;12773;50.162;8.548;2022-09-09T11:22:48;22.50;99.90
24638;DHT22;12773;50.162;8.548;2022-09-09T11:25:42;22.10;99.90
24638;DHT22;12773;50.162;8.548;2022-09-09T11:29:32;22.50;99.90
24638;DHT22;12773;50.162;8.548;2022-09-09T11:31:46;22.70;99.90
24638;DHT22;12773;50.162;8.548;2022-09-09T11:38:02;23.50;99.90
24638;DHT22;12773;50.162;8.548;2022-09-09T11:40:55;23.60;99.90
24638;DHT22;12773;50.162;8.548;2022-09-09T11:43:44;23.60;99.90
24638;DHT22;12773;50.162;8.548;2022-09-09T11:46:37;23.50;99.90
24638;DHT22;12773;50.162;8.548;2022-09-09T11:49:39;23.70;99.90
24638;DHT22;12773;50.162;8.548;2022-09-09T11:52:41;23.70;99.90
24638;DHT22;12773;50.162;8.548;2022-09-09T11:55:32;23.40;99.90
24638;DHT22;12773;50.162;8.548;2022-09-09T11:58:19;23.00;99.90
24638;DHT22;12773;50.162;8.548;2022-09-09T12:01:14;22.80;99.90
24638;DHT22;12773;50.162;8.548;2022-09-09T12:10:35;22.70;99.90
24638;DHT22;12773;50.162;8.548;2022-09-09T12:13:26;22.50;99.90
24638;DHT22;12773;50.162;8.548;2022-09-09T12:16:34;22.10;99.90
24638;DHT22;12773;50.162;8.548;2022-09-09T12:19:22;21.80;99.90
24638;DHT22;12773;50.162;8.548;2022-09-09T12:22:23;21.70;99.90
24638;DHT22;12773;50.162;8.548;2022-09-09T12:28:39;21.70;99.90
24638;DHT22;12773;50.162;8.548;2022-09-09T12:35:07;21.70;99.90
24638;DHT22;12773;50.162;8.548;2022-09-09T12:37:54;21.60;99.90
24638;DHT22;12773;50.162;8.548;2022-09-09T12:40:42;21.50;99.90
24638;DHT22;12773;50.162;8.548;2022-09-09T12:43:36;21.60;99.90
24638;DHT22;12773;50.162;8.548;2022-09-09T12:49:35;21.10;99.90
24638;DHT22;12773;50.162;8.548;2022-09-09T12:52:30;20.50;99.90
24638;DHT22;12773;50.162;8.548;2022-09-09T12:55:25;19.90;99.90
24638;DHT22;12773;50.162;8.548;2022-09-09T12:58:12;19.80;99.90
24638;DHT22;12773;50.162;8.548;2022-09-09T13:01:02;19.90;99.90
24638;DHT22;12773;50.162;8.548;2022-09-09T13:03:51;20.20;99.90
24638;DHT22;12773;50.162;8.548;2022-09-09T13:06:39;20.80;99.90
24638;DHT22;12773;50.162;8.548;2022-09-09T13:09:26;21.20;99.90
24638;DHT22;12773;50.162;8.548;2022-09-09T13:12:16;21.50;99.90
24638;DHT22;12773;50.162;8.548;2022-09-09T13:15:04;21.90;99.90
24638;DHT22;12773;50.162;8.548;2022-09-09T13:17:54;22.00;99.90
24638;DHT22;12773;50.162;8.548;2022-09-09T13:20:46;22.00;99.90
24638;DHT22;12773;50.162;8.548;2022-09-09T13:23:35;22.20;99.90
24638;DHT22;12773;50.162;8.548;2022-09-09T13:26:25;22.40;99.90
24638;DHT22;12773;50.162;8.548;2022-09-09T13:29:20;22.60;99.90
24638;DHT22;12773;50.162;8.548;2022-09-09T13:32:16;22.50;99.90
24638;DHT22;12773;50.162;8.548;2022-09-09T13:35:01;22.30;99.90
24638;DHT22;12773;50.162;8.548;2022-09-09T13:37:49;22.50;99.90
24638;DHT22;12773;50.162;8.548;2022-09-09T13:40:37;22.40;99.90
24638;DHT22;12773;50.162;8.548;2022-09-09T13:43:26;22.10;99.90
24638;DHT22;12773;50.162;8.548;2022-09-09T13:49:23;22.50;99.90
24638;DHT22;12773;50.162;8.548;2022-09-09T13:52:14;22.70;99.90
24638;DHT22;12773;50.162;8.548;2022-09-09T13:55:03;22.80;99.90
24638;DHT22;12773;50.162;8.548;2022-09-09T13:57:58;22.40;99.90
24638;DHT22;12773;50.162;8.548;2022-09-09T14:00:46;22.60;99.90
24638;DHT22;12773;50.162;8.548;2022-09-09T14:03:34;22.80;99.90
24638;DHT22;12773;50.162;8.548;2022-09-09T14:06:21;22.70;99.90
24638;DHT22;12773;50.162;8.548;2022-09-09T14:09:13;22.40;99.90
24638;DHT22;12773;50.162;8.548;2022-09-09T14:12:02;22.10;99.90
24638;DHT22;12773;50.162;8.548;2022-09-09T14:14:49;21.70;99.90
24638;DHT22;12773;50.162;8.548;2022-09-09T14:17:37;21.50;99.90
24638;DHT22;12773;50.162;8.548;2022-09-09T14:20:25;21.40;99.90
24638;DHT22;12773;50.162;8.548;2022-09-09T14:23:13;21.30;99.90
24638;DHT22;12773;50.162;8.548;2022-09-09T14:26:01;21.20;99.90
24638;DHT22;12773;50.162;8.548;2022-09-09T14:28:49;21.10;99.90
24638;DHT22;12773;50.162;8.548;2022-09-09T14:31:39;21.00;99.90
24638;DHT22;12773;50.162;8.548;2022-09-09T14:34:26;20.90;99.90
24638;DHT22;12773;50.162;8.548;2022-09-09T14:37:13;20.80;99.90
24638;DHT22;12773;50.162;8.548;2022-09-09T14:40:01;20.90;99.90
24638;DHT22;12773;50.162;8.548;2022-09-09T14:42:48;20.90;99.90
24638;DHT22;12773;50.162;8.548;2022-09-09T14:45:36;20.80;99.90
24638;DHT22;12773;50.162;8.548;2022-09-09T14:48:24;20.50;99.90
24638;DHT22;12773;50.162;8.548;2022-09-09T14:51:13;20.50;99.90
24638;DHT22;12773;50.162;8.548;2022-09-09T14:54:01;20.50;99.90
24638;DHT22;12773;50.162;8.548;2022-09-09T14:56:49;20.90;99.90
24638;DHT22;12773;50.162;8.548;2022-09-09T14:59:36;21.00;99.90
24638;DHT22;12773;50.162;8.548;2022-09-09T15:02:24;21.20;99.90
24638;DHT22;12773;50.162;8.548;2022-09-09T15:05:11;21.10;99.90
24638;DHT22;12773;50.162;8.548;2022-09-09T15:07:58;21.30;99.90
24638;DHT22;12773;50.162;8.548;2022-09-09T15:10:45;21.60;99.90
24638;DHT22;12773;50.162;8.548;2022-09-09T15:13:34;21.90;99.90
24638;DHT22;12773;50.162;8.548;2022-09-09T15:16:26;22.10;99.90
24638;DHT22;12773;50.162;8.548;2022-09-09T15:19:13;22.40;99.90
24638;DHT22;12773;50.162;8.548;2022-09-09T15:22:01;22.40;99.90
24638;DHT22;12773;50.162;8.548;2022-09-09T15:24:48;22.10;99.90
24638;DHT22;12773;50.162;8.548;2022-09-09T15:27:35;22.20;99.90
24638;DHT22;12773;50.162;8.548;2022-09-09T15:30:22;22.20;99.90
24638;DHT22;12773;50.162;8.548;2022-09-09T15:33:10;22.00;99.90
24638;DHT22;12773;50.162;8.548;2022-09-09T15:35:58;21.60;99.90
24638;DHT22;12773;50.162;8.548;2022-09-09T15:38:45;21.60;99.90
24638;DHT22;12773;50.162;8.548;2022-09-09T15:41:33;21.50;99.90
24638;DHT22;12773;50.162;8.548;2022-09-09T15:44:21;21.40;99.90
24638;DHT22;12773;50.162;8.548;2022-09-09T15:47:11;21.20;99.90
24638;DHT22;12773;50.162;8.548;2022-09-09T15:49:59;21.00;99.90
24638;DHT22;12773;50.162;8.548;2022-09-09T15:52:46;20.90;99.90
24638;DHT22;12773;50.162;8.548;2022-09-09T15:55:33;20.80;99.90
24638;DHT22;12773;50.162;8.548;2022-09-09T15:58:20;20.70;99.90
24638;DHT22;12773;50.162;8.548;2022-09-09T16:01:08;20.60;99.90
24638;DHT22;12773;50.162;8.548;2022-09-09T16:03:57;20.60;99.90
24638;DHT22;12773;50.162;8.548;2022-09-09T16:06:45;20.60;99.90
24638;DHT22;12773;50.162;8.548;2022-09-09T16:09:33;20.50;99.90
24638;DHT22;12773;50.162;8.548;2022-09-09T16:12:21;20.50;99.90
24638;DHT22;12773;50.162;8.548;2022-09-09T16:15:08;20.30;99.90
24638;DHT22;12773;50.162;8.548;2022-09-09T16:17:56;20.40;99.90
24638;DHT22;12773;50.162;8.548;2022-09-09T16:20:53;20.50;99.90
24638;DHT22;12773;50.162;8.548;2022-09-09T16:23:35;20.40;99.90
24638;DHT22;12773;50.162;8.548;2022-09-09T16:26:23;20.40;99.90
24638;DHT22;12773;50.162;8.548;2022-09-09T16:29:10;20.40;99.90
24638;DHT22;12773;50.162;8.548;2022-09-09T16:31:58;20.40;99.90
24638;DHT22;12773;50.162;8.548;2022-09-09T16:34:47;20.40;99.90
24638;DHT22;12773;50.162;8.548;2022-09-09T16:37:35;20.40;99.90
24638;DHT22;12773;50.162;8.548;2022-09-09T16:40:22;20.40;99.90
24638;DHT22;12773;50.162;8.548;2022-09-09T16:43:10;20.30;99.90
24638;DHT22;12773;50.162;8.548;2022-09-09T16:45:59;20.30;99.90
24638;DHT22;12773;50.162;8.548;2022-09-09T16:48:48;20.30;99.90
24638;DHT22;12773;50.162;8.548;2022-09-09T16:51:37;20.20;99.90
24638;DHT22;12773;50.162;8.548;2022-09-09T16:54:25;20.10;99.90
24638;DHT22;12773;50.162;8.548;2022-09-09T16:57:13;20.10;99.90
24638;DHT22;12773;50.162;8.548;2022-09-09T17:00:00;20.10;99.90
24638;DHT22;12773;50.162;8.548;2022-09-09T17:02:49;20.10;99.90
24638;DHT22;12773;50.162;8.548;2022-09-09T17:08:46;20.10;99.90
24638;DHT22;12773;50.162;8.548;2022-09-09T17:11:36;19.90;99.90
24638;DHT22;12773;50.162;8.548;2022-09-09T17:14:23;20.00;99.90
24638;DHT22;12773;50.162;8.548;2022-09-09T17:17:10;20.00;99.90
24638;DHT22;12773;50.162;8.548;2022-09-09T17:19:59;19.90;99.90
24638;DHT22;12773;50.162;8.548;2022-09-09T17:22:49;19.80;99.90
24638;DHT22;12773;50.162;8.548;2022-09-09T17:25:37;19.70;99.90
24638;DHT22;12773;50.162;8.548;2022-09-09T17:28:24;19.70;99.90
24638;DHT22;12773;50.162;8.548;2022-09-09T17:31:16;19.80;99.90
24638;DHT22;12773;50.162;8.548;2022-09-09T17:34:03;19.80;99.90
24638;DHT22;12773;50.162;8.548;2022-09-09T17:36:51;19.80;99.90
24638;DHT22;12773;50.162;8.548;2022-09-09T17:39:38;19.70;99.90
24638;DHT22;12773;50.162;8.548;2022-09-09T17:42:26;19.60;99.90
24638;DHT22;12773;50.162;8.548;2022-09-09T17:45:14;19.50;99.90
24638;DHT22;12773;50.162;8.548;2022-09-09T17:48:01;19.60;99.90
24638;DHT22;12773;50.162;8.548;2022-09-09T17:50:56;19.60;99.90
24638;DHT22;12773;50.162;8.548;2022-09-09T17:53:45;19.50;99.90
24638;DHT22;12773;50.162;8.548;2022-09-09T17:56:33;19.50;99.90
24638;DHT22;12773;50.162;8.548;2022-09-09T17:59:21;19.50;99.90
24638;DHT22;12773;50.162;8.548;2022-09-09T18:02:11;19.50;99.90
24638;DHT22;12773;50.162;8.548;2022-09-09T18:04:59;19.50;99.90
24638;DHT22;12773;50.162;8.548;2022-09-09T18:07:47;19.50;99.90
24638;DHT22;12773;50.162;8.548;2022-09-09T18:10:35;19.50;99.90
24638;DHT22;12773;50.162;8.548;2022-09-09T18:13:22;19.30;99.90
24638;DHT22;12773;50.162;8.548;2022-09-09T18:16:10;19.30;99.90
24638;DHT22;12773;50.162;8.548;2022-09-09T18:18:58;19.30;99.90
24638;DHT22;12773;50.162;8.548;2022-09-09T18:21:46;19.30;99.90
24638;DHT22;12773;50.162;8.548;2022-09-09T18:24:34;19.20;99.90
24638;DHT22;12773;50.162;8.548;2022-09-09T18:27:22;19.20;99.90
24638;DHT22;12773;50.162;8.548;2022-09-09T18:30:09;19.10;99.90
24638;DHT22;12773;50.162;8.548;2022-09-09T18:32:57;19.10;99.90
24638;DHT22;12773;50.162;8.548;2022-09-09T18:35:44;19.00;99.90
24638;DHT22;12773;50.162;8.548;2022-09-09T18:38:33;18.90;99.90
24638;DHT22;12773;50.162;8.548;2022-09-09T18:41:23;19.00;99.90
24638;DHT22;12773;50.162;8.548;2022-09-09T18:44:13;18.90;99.90
24638;DHT22;12773;50.162;8.548;2022-09-09T18:47:02;18.90;99.90
24638;DHT22;12773;50.162;8.548;2022-09-09T18:49:52;18.80;99.90
24638;DHT22;12773;50.162;8.548;2022-09-09T18:52:40;18.50;99.90
24638;DHT22;12773;50.162;8.548;2022-09-09T18:55:27;18.40;99.90
24638;DHT22;12773;50.162;8.548;2022-09-09T18:58:15;18.40;99.90
24638;DHT22;12773;50.162;8.548;2022-09-09T19:01:08;18.30;99.90
24638;DHT22;12773;50.162;8.548;2022-09-09T19:03:54;18.40;99.90
24638;DHT22;12773;50.162;8.548;2022-09-09T19:06:46;18.40;99.90
24638;DHT22;12773;50.162;8.548;2022-09-09T19:09:33;18.30;99.90
24638;DHT22;12773;50.162;8.548;2022-09-09T19:12:23;18.30;99.90
24638;DHT22;12773;50.162;8.548;2022-09-09T19:15:10;18.30;99.90
24638;DHT22;12773;50.162;8.548;2022-09-09T19:17:57;18.20;99.90